Latest Coastal Weather Observations for Cape Byron

IDN60701

Issued at 10:12 pm EST Tuesday 1 September 2015 (issued every 10 minutes, with the page automatically refreshed every 10 minutes)

About coastal observations | Map of coastal stations | Coastal observations for NSW | Marine services | Other Formats
Station Details ID: 058216 Name: CAPE BYRON AWS Lat: -28.64 Lon: 153.64 Height: 95.0 m
Data from the previous 72 hours. | See also: Recent months at Cape Byron
Date/Time
EST
Temp

°C
Wind Pressure Rain
since 9am
mm
Weather Cloud Vis
km
Sea
Height
m
Swell
Dir
 
Speed
knots
Gust
knots
hPa Trend Height
m
Period
s
Dir
01/10:00pm 16.4 WNW 6 7 1016.2 - 0.0 - - - - - - -
01/09:30pm 16.4 WNW 5 6 1015.9 - 0.0 - - - - - - -
01/09:00pm 16.2 NW 6 7 1015.9 - 0.0 - - - - - - -
01/08:30pm 16.1 WNW 5 7 1015.9 - 0.0 - - - - - - -
01/08:00pm 16.3 WNW 7 11 1015.8 - 0.0 - - - - - - -
01/07:30pm 17.9 NE 7 11 1015.2 - 0.0 - - - - - - -
01/07:00pm 17.6 ENE 8 9 1015.0 - 0.0 - - - - - - -
01/06:30pm 17.6 NE 8 10 1014.6 - 0.0 - - - - - - -
01/06:00pm 17.7 ENE 9 11 1014.1 - 0.0 - - - - - - -
01/05:30pm 17.7 ENE 9 11 1013.8 - 0.0 - - - - - - -
01/05:00pm 18.6 ENE 7 9 1013.7 - 0.0 - - - - - - -
01/04:30pm 19.3 ENE 9 11 1013.7 - 0.0 - - - - - - -
01/04:00pm 20.1 ENE 9 11 1013.5 - 0.0 - - - - - - -
01/03:30pm 19.6 NE 10 11 1013.4 - 0.0 - - - - - - -
01/03:00pm 19.8 NE 10 12 1013.4 - 0.0 - - - - - - -
01/02:30pm 20.7 NE 8 9 1013.9 - 0.0 - - - - - - -
01/02:00pm 21.6 ENE 7 8 1014.1 - 0.0 - - - - - - -
01/01:30pm 21.0 ENE 7 8 1014.2 - 0.0 - - - - - - -
01/01:00pm 21.0 E 7 10 1014.2 - 0.0 - - - - - - -
01/12:30pm 20.4 E 7 9 1014.5 - 0.0 - - - - - - -
01/12:00pm 19.9 E 8 10 1015.0 - 0.0 - - - - - - -
01/11:30am 21.3 E 9 11 1015.4 - 0.0 - - - - - - -
01/11:00am 20.4 ENE 6 8 1015.9 - 0.0 - - - - - - -
01/10:30am 18.9 SW 6 9 1016.2 - 0.0 - - - - - - -
01/10:00am 18.4 W 6 10 1016.5 - 0.0 - - - - - - -
01/09:30am 18.0 WSW 7 9 1016.5 - 0.0 - - - - - - -
01/09:00am 17.0 W 7 13 1016.6 - 0.0 - - - - - - -
01/08:30am 15.6 WNW 6 10 1016.4 - 0.0 - - - - - - -
01/08:00am 13.8 WNW 8 11 1016.3 - 0.0 - - - - - - -
01/07:30am 12.8 WNW 11 12 1016.0 - 0.0 - - - - - - -
01/07:00am 12.7 WNW 11 13 1015.8 - 0.0 - - - - - - -
01/06:30am 13.8 W 11 13 1015.6 - 0.0 - - - - - - -
01/06:00am 14.3 W 14 17 1015.2 - 0.0 - - - - - - -
01/05:30am 14.2 W 16 19 1014.9 - 0.0 - - - - - - -
01/05:00am 13.8 W 15 19 1014.6 - 0.0 - - - - - - -
01/04:30am 13.5 W 15 17 1014.4 - 0.0 - - - - - - -
01/04:00am 13.3 W 15 17 1014.4 - 0.0 - - - - - - -
01/03:30am 13.3 W 16 19 1014.5 - 0.0 - - - - - - -
01/03:00am 13.1 W 16 20 1014.5 - 0.0 - - - - - - -
01/02:30am 13.1 W 16 21 1014.6 - 0.0 - - - - - - -
01/02:00am 13.1 W 15 19 1014.7 - 0.0 - - - - - - -
01/01:30am 13.3 W 15 19 1014.9 - 0.0 - - - - - - -
01/01:00am 13.6 W 15 19 1015.1 - 0.0 - - - - - - -
01/12:30am 13.5 W 13 17 1015.3 - 0.0 - - - - - - -
01/12:00am 13.9 W 10 12 1015.8 - 0.0 - - - - - - -
 
Date/Time
EST
Temp

°C
Wind Pressure Rain
since 9am
mm
Weather Cloud Vis
km
Sea
Height
m
Swell
Dir
 
Speed
knots
Gust
knots
hPa Trend Height
m
Period
s
Dir
31/11:30pm 14.1 WNW 7 9 1016.0 - 0.0 - - - - - - -
31/11:00pm 14.4 WNW 6 9 1016.0 - 0.0 - - - - - - -
31/10:30pm 14.5 W 8 10 1016.0 - 0.0 - - - - - - -
31/10:00pm 14.3 WNW 7 9 1015.9 - 0.0 - - - - - - -
31/09:30pm 14.3 WNW 7 9 1015.8 - 0.0 - - - - - - -
31/09:00pm 14.4 WNW 8 11 1015.8 - 0.0 - - - - - - -
31/08:30pm 14.5 WNW 9 11 1015.5 - 0.0 - - - - - - -
31/08:00pm 14.9 WNW 7 10 1015.3 - 0.0 - - - - - - -
31/07:30pm 16.1 ENE 4 5 1015.1 - 0.0 - - - - - - -
31/07:00pm 16.5 ENE 5 8 1014.8 - 0.0 - - - - - - -
31/06:30pm 16.6 ENE 5 7 1014.6 - 0.0 - - - - - - -
31/06:00pm 16.1 E 6 8 1014.4 - 0.0 - - - - - - -
31/05:30pm 16.4 E 6 8 1014.3 - 0.0 - - - - - - -
31/05:00pm 17.1 E 7 8 1014.1 - 0.0 - - - - - - -
31/04:30pm 17.5 ESE 7 9 1013.9 - 0.0 - - - - - - -
31/04:00pm 17.6 ESE 11 14 1013.6 - 0.0 - - - - - - -
31/03:30pm 17.9 SE 11 14 1013.5 - 0.0 - - - - - - -
31/03:00pm 17.7 SE 12 15 1013.5 - 0.0 - - - - - - -
31/02:30pm 17.7 SE 13 17 1013.5 - 0.0 - - - - - - -
31/02:00pm 17.6 SSE 11 15 1013.7 - 0.0 - - - - - - -
31/01:30pm 18.0 SE 11 16 1014.1 - 0.0 - - - - - - -
31/01:00pm 17.8 SSE 11 15 1014.3 - 0.0 - - - - - - -
31/12:30pm 17.9 SSE 10 14 1014.7 - 0.0 - - - - - - -
31/12:00pm 17.3 S 12 16 1014.9 - 0.0 - - - - - - -
31/11:30am 17.1 SSE 11 15 1015.2 - 0.0 - - - - - - -
31/11:00am 17.0 S 12 14 1015.8 - 0.0 - - - - - - -
31/10:30am 16.9 S 11 15 1016.2 - 0.0 - - - - - - -
31/10:00am 16.4 SSW 10 13 1016.4 - 0.0 - - - - - - -
31/09:30am 16.5 SW 9 13 1016.4 - 0.0 - - - - - - -
31/09:00am 15.9 SW 10 14 1016.5 - 5.4 - - - - - - -
31/08:30am 14.9 WSW 11 15 1016.5 - 5.4 - - - - - - -
31/08:00am 14.0 WSW 12 17 1016.4 - 5.4 - - - - - - -
31/07:30am 13.7 WSW 12 16 1016.3 - 5.4 - - - - - - -
31/07:00am 13.1 WSW 14 17 1016.4 - 5.4 - - - - - - -
31/06:30am 12.5 WSW 14 18 1016.0 - 5.4 - - - - - - -
31/06:00am 12.6 WSW 14 19 1015.7 - 5.4 - - - - - - -
31/05:30am 12.5 WSW 15 18 1015.5 - 5.4 - - - - - - -
31/05:00am 12.7 SW 15 19 1015.4 - 5.4 - - - - - - -
31/04:30am 12.6 WSW 14 18 1015.3 - 5.4 - - - - - - -
31/04:00am 12.7 WSW 15 19 1015.1 - 5.4 - - - - - - -
31/03:30am 12.5 WSW 14 16 1015.0 - 5.4 - - - - - - -
31/03:00am 12.8 WSW 13 17 1015.2 - 5.4 - - - - - - -
31/02:30am 13.0 WSW 13 16 1015.5 - 5.4 - - - - - - -
31/02:00am 13.1 SW 13 16 1015.7 - 5.4 - - - - - - -
31/01:30am 13.1 WSW 14 17 1015.6 - 5.4 - - - - - - -
31/01:00am 13.2 WSW 13 17 1015.9 - 5.4 - - - - - - -
31/12:30am 13.3 WSW 12 14 1016.4 - 5.4 - - - - - - -
31/12:00am 13.6 SW 11 13 1016.7 - 5.4 Recent precip. - - - - - -
 
Date/Time
EST
Temp

°C
Wind Pressure Rain
since 9am
mm
Weather Cloud Vis
km
Sea
Height
m
Swell
Dir
 
Speed
knots
Gust
knots
hPa Trend Height
m
Period
s
Dir
30/11:30pm 13.9 SW 11 15 1016.7 - 4.8 - - - - - - -
30/11:00pm 14.8 WSW 15 23 1016.3 - 0.6 - - - - - - -
30/10:30pm 16.8 S 6 8 1016.3 - 0.0 - - - - - - -
30/10:00pm 16.2 SSW 7 9 1016.5 - 0.0 - - - - - - -
30/09:30pm 17.5 SSE 12 16 1016.7 - 0.0 - - - - - - -
30/09:00pm 17.7 SSE 13 17 1016.6 - 0.0 - - - - - - -
30/08:30pm 17.6 S 13 16 1016.5 - 0.0 - - - - - - -
30/08:00pm 17.6 SSE 15 20 1016.2 - 0.0 - - - - - - -
30/07:30pm 17.7 S 16 20 1016.1 - 0.0 - - - - - - -
30/07:00pm 17.3 S 18 21 1015.7 - 0.0 - - - - - - -
30/06:30pm 15.8 SSW 12 16 1015.4 - 0.0 - - - - - - -
30/06:00pm 15.9 SSW 12 14 1015.1 - 0.0 - - - - - - -
30/05:30pm 16.7 SSW 16 20 1014.9 - 0.0 - - - - - - -
30/05:00pm 17.0 SSW 20 23 1014.5 - 0.0 - - - - - - -
30/04:30pm 17.2 SSW 20 23 1014.2 - 0.0 - - - - - - -
30/04:00pm 17.4 SSW 20 24 1014.2 - 0.0 - - - - - - -
30/03:30pm 17.5 SSW 21 25 1014.1 - 0.0 - - - - - - -
30/03:00pm 17.2 S 21 24 1014.3 - 0.0 - - - - - - -
30/02:30pm 17.3 S 20 24 1014.5 - 0.0 - - - - - - -
30/02:00pm 17.3 S 22 26 1014.7 - 0.0 - - - - - - -
30/01:30pm 17.0 SSW 23 28 1014.8 - 0.0 - - - - - - -
30/01:00pm 17.3 SSW 22 26 1015.1 - 0.0 - - - - - - -
30/12:30pm 17.3 SSW 24 27 1015.3 - 0.0 - - - - - - -
30/12:00pm 17.3 SSW 23 26 1015.6 - 0.0 - - - - - - -
30/11:30am 18.1 SSW 17 22 1016.1 - 0.0 - - - - - - -
30/11:00am 17.9 SW 14 19 1016.7 - 0.0 - - - - - - -
30/10:30am 17.6 SW 13 20 1017.0 - 0.0 - - - - - - -
30/10:00am 17.2 SW 16 21 1017.1 - 0.0 - - - - - - -
30/09:30am 16.5 SW 13 19 1017.3 - 0.0 - - - - - - -
30/09:00am 15.6 WSW 12 17 1017.4 - 0.6 - - - - - - -
30/08:30am 15.5 WSW 14 19 1017.4 - 0.6 - - - - - - -
30/08:00am 15.1 WSW 16 21 1017.2 - 0.6 - - - - - - -
30/07:30am 15.0 WSW 11 14 1017.1 - 0.6 - - - - - - -
30/07:00am 15.2 WSW 13 17 1016.9 - 0.6 - - - - - - -
30/06:30am 15.3 WSW 12 17 1016.6 - 0.6 - - - - - - -
30/06:00am 15.3 WSW 10 11 1016.4 - 0.6 - - - - - - -
30/05:30am 14.9 W 9 11 1015.7 - 0.6 - - - - - - -
30/05:00am 14.7 WNW 9 11 1016.0 - 0.6 - - - - - - -
30/04:30am 15.3 WNW 6 9 1016.3 - 0.6 - - - - - - -
30/04:00am 15.6 NW 4 6 1016.3 - 0.4 - - - - - - -
30/03:30am 15.6 WNW 3 6 1016.5 - 0.4 - - - - - - -
30/03:00am 15.4 NNW 3 5 1016.7 - 0.4 - - - - - - -
30/02:30am 15.4 N 4 6 1016.7 - 0.4 - - - - - - -
30/02:00am 15.6 N 4 7 1017.5 - 0.4 - - - - - - -
30/01:30am 16.1 NE 4 6 1017.7 - 0.4 - - - - - - -
30/01:00am 16.1 NNW 5 8 1017.7 - 0.4 - - - - - - -
30/12:30am 16.1 NNW 6 9 1018.2 - 0.4 - - - - - - -
30/12:00am 16.3 NNW 7 11 1018.5 - 0.4 - - - - - - -
 
Date/Time
EST
Temp

°C
Wind Pressure Rain
since 9am
mm
Weather Cloud Vis
km
Sea
Height
m
Swell
Dir
 
Speed
knots
Gust
knots
hPa Trend Height
m
Period
s
Dir
29/11:30pm 16.4 NNW 8 11 1018.7 - 0.4 - - - - - - -
29/11:00pm 16.4 N 7 11 1018.8 - 0.4 - - - - - - -
29/10:30pm 16.5 NNW 6 9 1019.3 - 0.4 - - - - - - -

Other Formats:

Comma delimited format used in spreadsheet applications
http://www.bom.gov.au/fwo/IDN60701/IDN60701.94599.axf

JavaScript Object Notation format (JSON) in row-major order
http://www.bom.gov.au/fwo/IDN60701/IDN60701.94599.json